sensor_id;sensor_type;location;lat;lon;timestamp;P1;durP1;ratioP1;P2;durP2;ratioP2
2538;SDS011;1280;49.760;9.664;2023-03-05T00:00:42;30.90;;;17.13;;
2538;SDS011;1280;49.760;9.664;2023-03-05T00:03:10;28.77;;;16.05;;
2538;SDS011;1280;49.760;9.664;2023-03-05T00:05:40;31.70;;;15.90;;
2538;SDS011;1280;49.760;9.664;2023-03-05T00:08:08;33.47;;;17.40;;
2538;SDS011;1280;49.760;9.664;2023-03-05T00:10:36;31.98;;;15.73;;
2538;SDS011;1280;49.760;9.664;2023-03-05T00:13:04;28.25;;;15.25;;
2538;SDS011;1280;49.760;9.664;2023-03-05T00:15:33;37.13;;;17.08;;
2538;SDS011;1280;49.760;9.664;2023-03-05T00:18:07;37.42;;;17.17;;
2538;SDS011;1280;49.760;9.664;2023-03-05T00:20:35;30.40;;;15.40;;
2538;SDS011;1280;49.760;9.664;2023-03-05T00:23:03;29.83;;;16.73;;
2538;SDS011;1280;49.760;9.664;2023-03-05T00:25:33;31.50;;;16.00;;
2538;SDS011;1280;49.760;9.664;2023-03-05T00:28:01;28.85;;;15.60;;
2538;SDS011;1280;49.760;9.664;2023-03-05T00:30:30;28.58;;;15.75;;
2538;SDS011;1280;49.760;9.664;2023-03-05T00:32:58;31.67;;;17.25;;
2538;SDS011;1280;49.760;9.664;2023-03-05T00:35:27;33.08;;;17.00;;
2538;SDS011;1280;49.760;9.664;2023-03-05T00:37:55;34.35;;;17.27;;
2538;SDS011;1280;49.760;9.664;2023-03-05T00:40:23;27.17;;;15.20;;
2538;SDS011;1280;49.760;9.664;2023-03-05T00:42:51;38.35;;;19.27;;
2538;SDS011;1280;49.760;9.664;2023-03-05T00:45:19;28.88;;;14.43;;
2538;SDS011;1280;49.760;9.664;2023-03-05T00:47:47;29.17;;;15.82;;
2538;SDS011;1280;49.760;9.664;2023-03-05T00:50:15;29.05;;;16.38;;
2538;SDS011;1280;49.760;9.664;2023-03-05T00:52:45;32.63;;;16.38;;
2538;SDS011;1280;49.760;9.664;2023-03-05T00:55:13;27.65;;;15.60;;
2538;SDS011;1280;49.760;9.664;2023-03-05T00:57:42;31.10;;;17.25;;
2538;SDS011;1280;49.760;9.664;2023-03-05T01:00:11;32.63;;;17.00;;
2538;SDS011;1280;49.760;9.664;2023-03-05T01:02:40;30.55;;;17.20;;
2538;SDS011;1280;49.760;9.664;2023-03-05T01:05:09;28.85;;;17.40;;
2538;SDS011;1280;49.760;9.664;2023-03-05T01:07:38;32.30;;;16.70;;
2538;SDS011;1280;49.760;9.664;2023-03-05T01:10:08;33.13;;;17.77;;
2538;SDS011;1280;49.760;9.664;2023-03-05T01:12:38;32.28;;;16.70;;
2538;SDS011;1280;49.760;9.664;2023-03-05T01:15:08;31.63;;;16.10;;
2538;SDS011;1280;49.760;9.664;2023-03-05T01:17:36;28.92;;;17.60;;
2538;SDS011;1280;49.760;9.664;2023-03-05T01:20:04;33.63;;;16.35;;
2538;SDS011;1280;49.760;9.664;2023-03-05T01:22:33;36.72;;;17.88;;
2538;SDS011;1280;49.760;9.664;2023-03-05T01:25:01;42.10;;;17.58;;
2538;SDS011;1280;49.760;9.664;2023-03-05T01:27:31;34.45;;;18.20;;
2538;SDS011;1280;49.760;9.664;2023-03-05T01:30:00;54.17;;;26.55;;
2538;SDS011;1280;49.760;9.664;2023-03-05T01:32:28;43.50;;;21.40;;
2538;SDS011;1280;49.760;9.664;2023-03-05T01:34:56;46.47;;;24.02;;
2538;SDS011;1280;49.760;9.664;2023-03-05T01:37:24;54.22;;;24.30;;
2538;SDS011;1280;49.760;9.664;2023-03-05T01:39:52;35.40;;;17.13;;
2538;SDS011;1280;49.760;9.664;2023-03-05T01:42:19;39.00;;;16.65;;
2538;SDS011;1280;49.760;9.664;2023-03-05T01:45:04;23.33;;;12.75;;
2538;SDS011;1280;49.760;9.664;2023-03-05T01:47:36;26.60;;;12.05;;
2538;SDS011;1280;49.760;9.664;2023-03-05T01:50:06;23.77;;;11.57;;
2538;SDS011;1280;49.760;9.664;2023-03-05T01:52:38;21.00;;;11.57;;
2538;SDS011;1280;49.760;9.664;2023-03-05T01:55:08;22.58;;;11.38;;
2538;SDS011;1280;49.760;9.664;2023-03-05T01:57:41;18.38;;;9.93;;
2538;SDS011;1280;49.760;9.664;2023-03-05T02:00:13;20.92;;;9.77;;
2538;SDS011;1280;49.760;9.664;2023-03-05T02:02:46;18.80;;;10.27;;
2538;SDS011;1280;49.760;9.664;2023-03-05T02:05:17;23.05;;;10.25;;
2538;SDS011;1280;49.760;9.664;2023-03-05T02:07:46;19.17;;;10.80;;
2538;SDS011;1280;49.760;9.664;2023-03-05T02:10:15;20.15;;;11.02;;
2538;SDS011;1280;49.760;9.664;2023-03-05T02:12:44;20.15;;;10.73;;
2538;SDS011;1280;49.760;9.664;2023-03-05T02:15:16;21.10;;;10.57;;
2538;SDS011;1280;49.760;9.664;2023-03-05T02:17:44;21.65;;;11.70;;
2538;SDS011;1280;49.760;9.664;2023-03-05T02:20:14;21.90;;;11.57;;
2538;SDS011;1280;49.760;9.664;2023-03-05T02:22:44;20.83;;;10.90;;
2538;SDS011;1280;49.760;9.664;2023-03-05T02:25:13;20.20;;;12.30;;
2538;SDS011;1280;49.760;9.664;2023-03-05T02:27:43;22.58;;;12.32;;
2538;SDS011;1280;49.760;9.664;2023-03-05T02:30:17;21.20;;;11.43;;
2538;SDS011;1280;49.760;9.664;2023-03-05T02:32:47;23.25;;;11.38;;
2538;SDS011;1280;49.760;9.664;2023-03-05T02:35:15;21.33;;;11.70;;
2538;SDS011;1280;49.760;9.664;2023-03-05T02:37:44;22.85;;;12.27;;
2538;SDS011;1280;49.760;9.664;2023-03-05T02:40:14;20.30;;;11.65;;
2538;SDS011;1280;49.760;9.664;2023-03-05T02:42:42;21.45;;;11.32;;
2538;SDS011;1280;49.760;9.664;2023-03-05T02:45:12;22.65;;;12.60;;
2538;SDS011;1280;49.760;9.664;2023-03-05T02:47:40;24.63;;;14.18;;
2538;SDS011;1280;49.760;9.664;2023-03-05T02:50:09;23.27;;;12.95;;
2538;SDS011;1280;49.760;9.664;2023-03-05T02:52:38;22.20;;;12.60;;
2538;SDS011;1280;49.760;9.664;2023-03-05T02:55:12;27.27;;;12.90;;
2538;SDS011;1280;49.760;9.664;2023-03-05T02:57:41;30.92;;;13.90;;
2538;SDS011;1280;49.760;9.664;2023-03-05T03:00:10;26.00;;;14.02;;
2538;SDS011;1280;49.760;9.664;2023-03-05T03:03:09;27.80;;;12.20;;
2538;SDS011;1280;49.760;9.664;2023-03-05T03:05:27;24.88;;;13.40;;
2538;SDS011;1280;49.760;9.664;2023-03-05T03:07:55;23.13;;;13.27;;
2538;SDS011;1280;49.760;9.664;2023-03-05T03:10:25;24.52;;;14.02;;
2538;SDS011;1280;49.760;9.664;2023-03-05T03:12:53;25.65;;;13.50;;
2538;SDS011;1280;49.760;9.664;2023-03-05T03:15:21;30.67;;;15.05;;
2538;SDS011;1280;49.760;9.664;2023-03-05T03:17:49;26.90;;;13.82;;
2538;SDS011;1280;49.760;9.664;2023-03-05T03:20:17;29.05;;;14.80;;
2538;SDS011;1280;49.760;9.664;2023-03-05T03:22:45;27.73;;;15.10;;
2538;SDS011;1280;49.760;9.664;2023-03-05T03:25:14;27.20;;;15.10;;
2538;SDS011;1280;49.760;9.664;2023-03-05T03:27:45;28.17;;;16.58;;
2538;SDS011;1280;49.760;9.664;2023-03-05T03:32:59;26.27;;;16.00;;
2538;SDS011;1280;49.760;9.664;2023-03-05T03:35:27;24.25;;;14.50;;
2538;SDS011;1280;49.760;9.664;2023-03-05T03:37:55;30.05;;;16.45;;
2538;SDS011;1280;49.760;9.664;2023-03-05T03:40:25;33.35;;;16.65;;
2538;SDS011;1280;49.760;9.664;2023-03-05T03:42:54;30.33;;;16.27;;
2538;SDS011;1280;49.760;9.664;2023-03-05T03:45:22;35.00;;;18.95;;
2538;SDS011;1280;49.760;9.664;2023-03-05T03:47:50;36.25;;;20.98;;
2538;SDS011;1280;49.760;9.664;2023-03-05T03:50:18;37.05;;;19.98;;
2538;SDS011;1280;49.760;9.664;2023-03-05T03:52:50;33.88;;;19.02;;
2538;SDS011;1280;49.760;9.664;2023-03-05T03:55:19;34.60;;;18.52;;
2538;SDS011;1280;49.760;9.664;2023-03-05T03:57:47;33.17;;;17.65;;
2538;SDS011;1280;49.760;9.664;2023-03-05T04:00:17;38.72;;;19.90;;
2538;SDS011;1280;49.760;9.664;2023-03-05T04:02:45;35.30;;;18.20;;
2538;SDS011;1280;49.760;9.664;2023-03-05T04:05:13;34.30;;;20.27;;
2538;SDS011;1280;49.760;9.664;2023-03-05T04:07:41;38.38;;;20.42;;
2538;SDS011;1280;49.760;9.664;2023-03-05T04:10:10;36.38;;;20.48;;
2538;SDS011;1280;49.760;9.664;2023-03-05T04:12:39;36.22;;;21.23;;
2538;SDS011;1280;49.760;9.664;2023-03-05T04:15:08;40.33;;;21.33;;
2538;SDS011;1280;49.760;9.664;2023-03-05T04:17:38;35.92;;;19.83;;
2538;SDS011;1280;49.760;9.664;2023-03-05T04:20:06;37.65;;;21.55;;
2538;SDS011;1280;49.760;9.664;2023-03-05T04:22:36;46.08;;;22.05;;
2538;SDS011;1280;49.760;9.664;2023-03-05T04:25:04;38.83;;;20.48;;
2538;SDS011;1280;49.760;9.664;2023-03-05T04:27:33;36.42;;;21.40;;
2538;SDS011;1280;49.760;9.664;2023-03-05T04:30:07;35.40;;;19.40;;
2538;SDS011;1280;49.760;9.664;2023-03-05T04:32:39;36.03;;;21.50;;
2538;SDS011;1280;49.760;9.664;2023-03-05T04:35:07;38.47;;;21.60;;
2538;SDS011;1280;49.760;9.664;2023-03-05T04:37:37;41.35;;;20.77;;
2538;SDS011;1280;49.760;9.664;2023-03-05T04:40:05;33.15;;;20.65;;
2538;SDS011;1280;49.760;9.664;2023-03-05T04:42:34;35.65;;;20.60;;
2538;SDS011;1280;49.760;9.664;2023-03-05T04:45:02;35.08;;;19.42;;
2538;SDS011;1280;49.760;9.664;2023-03-05T04:47:32;40.72;;;19.77;;
2538;SDS011;1280;49.760;9.664;2023-03-05T04:50:02;32.60;;;19.70;;
2538;SDS011;1280;49.760;9.664;2023-03-05T04:52:30;36.38;;;20.35;;
2538;SDS011;1280;49.760;9.664;2023-03-05T04:54:58;35.92;;;19.50;;
2538;SDS011;1280;49.760;9.664;2023-03-05T04:57:26;28.70;;;17.98;;
2538;SDS011;1280;49.760;9.664;2023-03-05T04:59:54;34.85;;;18.30;;
2538;SDS011;1280;49.760;9.664;2023-03-05T05:02:22;31.95;;;18.48;;
2538;SDS011;1280;49.760;9.664;2023-03-05T05:04:51;29.17;;;17.65;;
2538;SDS011;1280;49.760;9.664;2023-03-05T05:07:20;30.15;;;17.45;;
2538;SDS011;1280;49.760;9.664;2023-03-05T05:12:27;32.03;;;17.20;;
2538;SDS011;1280;49.760;9.664;2023-03-05T05:14:55;24.50;;;15.52;;
2538;SDS011;1280;49.760;9.664;2023-03-05T05:17:24;29.30;;;16.92;;
2538;SDS011;1280;49.760;9.664;2023-03-05T05:19:53;30.65;;;16.55;;
2538;SDS011;1280;49.760;9.664;2023-03-05T05:22:22;27.83;;;17.48;;
2538;SDS011;1280;49.760;9.664;2023-03-05T05:24:50;28.02;;;14.80;;
2538;SDS011;1280;49.760;9.664;2023-03-05T05:27:24;26.77;;;15.15;;
2538;SDS011;1280;49.760;9.664;2023-03-05T05:29:52;24.77;;;15.23;;
2538;SDS011;1280;49.760;9.664;2023-03-05T05:32:20;28.67;;;15.15;;
2538;SDS011;1280;49.760;9.664;2023-03-05T05:34:52;25.20;;;13.65;;
2538;SDS011;1280;49.760;9.664;2023-03-05T05:37:28;29.95;;;15.15;;
2538;SDS011;1280;49.760;9.664;2023-03-05T05:39:56;25.05;;;15.02;;
2538;SDS011;1280;49.760;9.664;2023-03-05T05:42:25;24.17;;;14.13;;
2538;SDS011;1280;49.760;9.664;2023-03-05T05:44:54;25.63;;;12.93;;
2538;SDS011;1280;49.760;9.664;2023-03-05T05:47:22;29.00;;;14.40;;
2538;SDS011;1280;49.760;9.664;2023-03-05T05:49:50;22.50;;;13.35;;
2538;SDS011;1280;49.760;9.664;2023-03-05T05:52:18;24.42;;;13.70;;
2538;SDS011;1280;49.760;9.664;2023-03-05T05:54:47;25.17;;;13.95;;
2538;SDS011;1280;49.760;9.664;2023-03-05T05:57:15;21.33;;;11.77;;
2538;SDS011;1280;49.760;9.664;2023-03-05T05:59:43;19.30;;;12.73;;
2538;SDS011;1280;49.760;9.664;2023-03-05T06:02:11;25.42;;;12.93;;
2538;SDS011;1280;49.760;9.664;2023-03-05T06:04:45;21.52;;;12.65;;
2538;SDS011;1280;49.760;9.664;2023-03-05T06:07:13;22.48;;;12.45;;
2538;SDS011;1280;49.760;9.664;2023-03-05T06:09:41;24.40;;;12.85;;
2538;SDS011;1280;49.760;9.664;2023-03-05T06:12:10;28.75;;;13.60;;
2538;SDS011;1280;49.760;9.664;2023-03-05T06:14:38;20.75;;;12.30;;
2538;SDS011;1280;49.760;9.664;2023-03-05T06:17:06;23.35;;;13.35;;
2538;SDS011;1280;49.760;9.664;2023-03-05T06:19:38;21.90;;;12.50;;
2538;SDS011;1280;49.760;9.664;2023-03-05T06:22:05;22.80;;;11.85;;
2538;SDS011;1280;49.760;9.664;2023-03-05T06:24:35;22.05;;;11.82;;
2538;SDS011;1280;49.760;9.664;2023-03-05T06:27:04;22.65;;;12.95;;
2538;SDS011;1280;49.760;9.664;2023-03-05T06:29:33;24.02;;;13.00;;
2538;SDS011;1280;49.760;9.664;2023-03-05T06:32:01;21.80;;;12.90;;
2538;SDS011;1280;49.760;9.664;2023-03-05T06:34:30;23.73;;;12.50;;
2538;SDS011;1280;49.760;9.664;2023-03-05T06:36:58;18.45;;;11.40;;
2538;SDS011;1280;49.760;9.664;2023-03-05T06:39:26;20.70;;;12.05;;
2538;SDS011;1280;49.760;9.664;2023-03-05T06:41:55;17.15;;;9.75;;
2538;SDS011;1280;49.760;9.664;2023-03-05T06:44:23;16.55;;;9.30;;
2538;SDS011;1280;49.760;9.664;2023-03-05T06:46:53;14.13;;;7.57;;
2538;SDS011;1280;49.760;9.664;2023-03-05T06:49:21;14.50;;;7.47;;
2538;SDS011;1280;49.760;9.664;2023-03-05T06:51:49;16.17;;;7.90;;
2538;SDS011;1280;49.760;9.664;2023-03-05T06:54:17;17.63;;;8.10;;
2538;SDS011;1280;49.760;9.664;2023-03-05T06:56:45;18.52;;;7.55;;
2538;SDS011;1280;49.760;9.664;2023-03-05T06:59:14;19.10;;;7.85;;
2538;SDS011;1280;49.760;9.664;2023-03-05T07:01:43;13.85;;;6.70;;
2538;SDS011;1280;49.760;9.664;2023-03-05T07:04:13;12.23;;;6.32;;
2538;SDS011;1280;49.760;9.664;2023-03-05T07:06:41;9.60;;;5.40;;
2538;SDS011;1280;49.760;9.664;2023-03-05T07:09:10;10.82;;;5.57;;
2538;SDS011;1280;49.760;9.664;2023-03-05T07:11:43;9.60;;;5.78;;
2538;SDS011;1280;49.760;9.664;2023-03-05T07:14:11;13.55;;;4.95;;
2538;SDS011;1280;49.760;9.664;2023-03-05T07:16:39;10.52;;;6.20;;
2538;SDS011;1280;49.760;9.664;2023-03-05T07:19:06;17.20;;;5.55;;
2538;SDS011;1280;49.760;9.664;2023-03-05T07:21:37;11.25;;;5.00;;
2538;SDS011;1280;49.760;9.664;2023-03-05T07:24:05;8.07;;;4.30;;
2538;SDS011;1280;49.760;9.664;2023-03-05T07:26:34;9.15;;;3.95;;
2538;SDS011;1280;49.760;9.664;2023-03-05T07:29:02;8.15;;;3.50;;
2538;SDS011;1280;49.760;9.664;2023-03-05T07:31:35;7.85;;;4.05;;
2538;SDS011;1280;49.760;9.664;2023-03-05T07:34:10;8.90;;;3.95;;
2538;SDS011;1280;49.760;9.664;2023-03-05T07:36:40;10.93;;;4.18;;
2538;SDS011;1280;49.760;9.664;2023-03-05T07:39:10;8.75;;;4.05;;
2538;SDS011;1280;49.760;9.664;2023-03-05T07:41:39;7.82;;;3.65;;
2538;SDS011;1280;49.760;9.664;2023-03-05T07:44:06;7.55;;;3.10;;
2538;SDS011;1280;49.760;9.664;2023-03-05T07:46:36;14.85;;;4.63;;
2538;SDS011;1280;49.760;9.664;2023-03-05T07:49:04;11.55;;;3.85;;
2538;SDS011;1280;49.760;9.664;2023-03-05T07:51:32;9.05;;;5.28;;
2538;SDS011;1280;49.760;9.664;2023-03-05T07:54:02;9.32;;;3.85;;
2538;SDS011;1280;49.760;9.664;2023-03-05T07:56:31;10.18;;;3.70;;
2538;SDS011;1280;49.760;9.664;2023-03-05T07:59:02;10.85;;;3.70;;
2538;SDS011;1280;49.760;9.664;2023-03-05T08:01:31;7.25;;;3.35;;
2538;SDS011;1280;49.760;9.664;2023-03-05T08:04:00;7.97;;;3.40;;
2538;SDS011;1280;49.760;9.664;2023-03-05T08:06:29;12.70;;;3.67;;
2538;SDS011;1280;49.760;9.664;2023-03-05T08:08:57;9.75;;;3.63;;
2538;SDS011;1280;49.760;9.664;2023-03-05T08:11:27;8.45;;;3.05;;
2538;SDS011;1280;49.760;9.664;2023-03-05T08:13:55;11.85;;;3.15;;
2538;SDS011;1280;49.760;9.664;2023-03-05T08:16:24;9.98;;;3.25;;
2538;SDS011;1280;49.760;9.664;2023-03-05T08:18:53;7.65;;;2.58;;
2538;SDS011;1280;49.760;9.664;2023-03-05T08:21:23;8.20;;;2.70;;
2538;SDS011;1280;49.760;9.664;2023-03-05T08:23:54;7.75;;;2.47;;
2538;SDS011;1280;49.760;9.664;2023-03-05T08:26:23;7.82;;;2.80;;
2538;SDS011;1280;49.760;9.664;2023-03-05T08:28:54;12.77;;;2.67;;
2538;SDS011;1280;49.760;9.664;2023-03-05T08:31:22;5.93;;;2.33;;
2538;SDS011;1280;49.760;9.664;2023-03-05T08:33:53;7.70;;;2.85;;
2538;SDS011;1280;49.760;9.664;2023-03-05T08:36:21;8.60;;;2.38;;
2538;SDS011;1280;49.760;9.664;2023-03-05T08:38:51;6.50;;;2.70;;
2538;SDS011;1280;49.760;9.664;2023-03-05T08:41:19;7.32;;;2.05;;
2538;SDS011;1280;49.760;9.664;2023-03-05T08:43:47;6.18;;;2.78;;
2538;SDS011;1280;49.760;9.664;2023-03-05T08:46:17;6.93;;;2.50;;
2538;SDS011;1280;49.760;9.664;2023-03-05T08:48:45;7.15;;;2.90;;
2538;SDS011;1280;49.760;9.664;2023-03-05T08:51:14;5.82;;;2.40;;
2538;SDS011;1280;49.760;9.664;2023-03-05T08:53:44;10.75;;;2.60;;
2538;SDS011;1280;49.760;9.664;2023-03-05T08:56:13;10.63;;;2.55;;
2538;SDS011;1280;49.760;9.664;2023-03-05T08:58:41;8.07;;;2.50;;
2538;SDS011;1280;49.760;9.664;2023-03-05T09:01:13;6.40;;;2.75;;
2538;SDS011;1280;49.760;9.664;2023-03-05T09:03:43;4.80;;;2.50;;
2538;SDS011;1280;49.760;9.664;2023-03-05T09:06:18;8.70;;;2.70;;
2538;SDS011;1280;49.760;9.664;2023-03-05T09:08:46;9.70;;;2.75;;
2538;SDS011;1280;49.760;9.664;2023-03-05T09:11:14;7.63;;;2.78;;
2538;SDS011;1280;49.760;9.664;2023-03-05T09:13:42;6.20;;;3.40;;
2538;SDS011;1280;49.760;9.664;2023-03-05T09:16:11;6.75;;;2.70;;
2538;SDS011;1280;49.760;9.664;2023-03-05T09:18:40;6.65;;;2.55;;
2538;SDS011;1280;49.760;9.664;2023-03-05T09:21:10;9.63;;;3.20;;
2538;SDS011;1280;49.760;9.664;2023-03-05T09:23:39;7.05;;;2.60;;
2538;SDS011;1280;49.760;9.664;2023-03-05T09:26:08;6.75;;;2.80;;
2538;SDS011;1280;49.760;9.664;2023-03-05T09:28:39;7.90;;;3.17;;
2538;SDS011;1280;49.760;9.664;2023-03-05T09:31:08;9.27;;;3.33;;
2538;SDS011;1280;49.760;9.664;2023-03-05T09:33:37;6.25;;;2.83;;
2538;SDS011;1280;49.760;9.664;2023-03-05T09:36:14;6.03;;;2.65;;
2538;SDS011;1280;49.760;9.664;2023-03-05T09:38:45;8.13;;;3.33;;
2538;SDS011;1280;49.760;9.664;2023-03-05T09:41:14;7.15;;;3.30;;
2538;SDS011;1280;49.760;9.664;2023-03-05T09:43:52;7.22;;;3.08;;
2538;SDS011;1280;49.760;9.664;2023-03-05T09:46:30;6.93;;;3.10;;
2538;SDS011;1280;49.760;9.664;2023-03-05T09:49:09;8.75;;;3.22;;
2538;SDS011;1280;49.760;9.664;2023-03-05T09:51:43;8.18;;;3.65;;
2538;SDS011;1280;49.760;9.664;2023-03-05T09:54:15;10.38;;;3.42;;
2538;SDS011;1280;49.760;9.664;2023-03-05T09:56:47;7.60;;;3.33;;
2538;SDS011;1280;49.760;9.664;2023-03-05T09:59:24;9.82;;;3.55;;
2538;SDS011;1280;49.760;9.664;2023-03-05T10:02:02;8.13;;;3.47;;
2538;SDS011;1280;49.760;9.664;2023-03-05T10:04:40;12.32;;;4.70;;
2538;SDS011;1280;49.760;9.664;2023-03-05T10:07:12;9.57;;;4.43;;
2538;SDS011;1280;49.760;9.664;2023-03-05T10:12:19;9.15;;;4.70;;
2538;SDS011;1280;49.760;9.664;2023-03-05T10:14:53;8.02;;;3.75;;
2538;SDS011;1280;49.760;9.664;2023-03-05T10:17:25;12.90;;;5.45;;
2538;SDS011;1280;49.760;9.664;2023-03-05T10:23:22;10.13;;;5.30;;
2538;SDS011;1280;49.760;9.664;2023-03-05T10:26:05;10.43;;;4.50;;
2538;SDS011;1280;49.760;9.664;2023-03-05T10:28:42;13.35;;;5.35;;
2538;SDS011;1280;49.760;9.664;2023-03-05T10:31:29;8.45;;;4.43;;
2538;SDS011;1280;49.760;9.664;2023-03-05T10:34:12;19.80;;;4.72;;
2538;SDS011;1280;49.760;9.664;2023-03-05T10:36:58;13.80;;;6.10;;
2538;SDS011;1280;49.760;9.664;2023-03-05T10:39:47;15.93;;;6.80;;
2538;SDS011;1280;49.760;9.664;2023-03-05T10:42:24;12.73;;;7.35;;
2538;SDS011;1280;49.760;9.664;2023-03-05T10:44:57;12.30;;;6.68;;
2538;SDS011;1280;49.760;9.664;2023-03-05T10:47:27;12.80;;;6.65;;
2538;SDS011;1280;49.760;9.664;2023-03-05T10:49:59;13.57;;;6.97;;
2538;SDS011;1280;49.760;9.664;2023-03-05T10:52:28;13.65;;;6.35;;
2538;SDS011;1280;49.760;9.664;2023-03-05T10:55:01;11.50;;;6.18;;
2538;SDS011;1280;49.760;9.664;2023-03-05T10:57:38;17.67;;;6.35;;
2538;SDS011;1280;49.760;9.664;2023-03-05T11:00:11;14.57;;;6.25;;
2538;SDS011;1280;49.760;9.664;2023-03-05T11:02:55;10.82;;;6.15;;
2538;SDS011;1280;49.760;9.664;2023-03-05T11:08:21;11.48;;;6.07;;
2538;SDS011;1280;49.760;9.664;2023-03-05T11:13:54;12.00;;;5.60;;
2538;SDS011;1280;49.760;9.664;2023-03-05T11:16:24;12.38;;;5.60;;
2538;SDS011;1280;49.760;9.664;2023-03-05T11:21:45;13.15;;;5.97;;
2538;SDS011;1280;49.760;9.664;2023-03-05T11:24:14;10.45;;;5.93;;
2538;SDS011;1280;49.760;9.664;2023-03-05T11:26:46;16.70;;;6.70;;
2538;SDS011;1280;49.760;9.664;2023-03-05T11:29:16;9.65;;;5.57;;
2538;SDS011;1280;49.760;9.664;2023-03-05T11:31:46;10.13;;;6.40;;
2538;SDS011;1280;49.760;9.664;2023-03-05T11:34:22;11.95;;;6.10;;
2538;SDS011;1280;49.760;9.664;2023-03-05T11:37:02;13.75;;;6.22;;
2538;SDS011;1280;49.760;9.664;2023-03-05T11:39:32;12.82;;;7.00;;
2538;SDS011;1280;49.760;9.664;2023-03-05T11:42:05;10.88;;;5.10;;
2538;SDS011;1280;49.760;9.664;2023-03-05T11:44:41;12.88;;;5.70;;
2538;SDS011;1280;49.760;9.664;2023-03-05T11:47:16;10.93;;;5.80;;
2538;SDS011;1280;49.760;9.664;2023-03-05T11:49:53;10.02;;;5.47;;
2538;SDS011;1280;49.760;9.664;2023-03-05T11:52:27;9.70;;;6.20;;
2538;SDS011;1280;49.760;9.664;2023-03-05T11:55:00;11.63;;;6.15;;
2538;SDS011;1280;49.760;9.664;2023-03-05T11:57:34;16.85;;;7.32;;
2538;SDS011;1280;49.760;9.664;2023-03-05T12:00:12;14.20;;;6.65;;
2538;SDS011;1280;49.760;9.664;2023-03-05T12:02:51;17.02;;;6.45;;
2538;SDS011;1280;49.760;9.664;2023-03-05T12:05:20;12.70;;;6.82;;
2538;SDS011;1280;49.760;9.664;2023-03-05T12:07:55;11.35;;;6.30;;
2538;SDS011;1280;49.760;9.664;2023-03-05T12:10:25;14.57;;;6.10;;
2538;SDS011;1280;49.760;9.664;2023-03-05T12:12:56;14.50;;;7.30;;
2538;SDS011;1280;49.760;9.664;2023-03-05T12:15:34;11.75;;;6.55;;
2538;SDS011;1280;49.760;9.664;2023-03-05T12:18:14;12.73;;;6.47;;
2538;SDS011;1280;49.760;9.664;2023-03-05T12:20:55;13.98;;;6.93;;
2538;SDS011;1280;49.760;9.664;2023-03-05T12:23:31;11.45;;;5.63;;
2538;SDS011;1280;49.760;9.664;2023-03-05T12:26:13;11.32;;;5.60;;
2538;SDS011;1280;49.760;9.664;2023-03-05T12:28:53;17.33;;;6.20;;
2538;SDS011;1280;49.760;9.664;2023-03-05T12:31:25;10.82;;;5.32;;
2538;SDS011;1280;49.760;9.664;2023-03-05T12:34:12;17.10;;;5.85;;
2538;SDS011;1280;49.760;9.664;2023-03-05T12:40:19;13.57;;;5.95;;
2538;SDS011;1280;49.760;9.664;2023-03-05T12:42:52;11.88;;;5.88;;
2538;SDS011;1280;49.760;9.664;2023-03-05T12:45:35;12.32;;;5.70;;
2538;SDS011;1280;49.760;9.664;2023-03-05T12:51:26;10.15;;;5.38;;
2538;SDS011;1280;49.760;9.664;2023-03-05T12:57:01;13.85;;;6.70;;
2538;SDS011;1280;49.760;9.664;2023-03-05T12:59:36;12.52;;;6.03;;
2538;SDS011;1280;49.760;9.664;2023-03-05T13:02:16;11.20;;;6.03;;
2538;SDS011;1280;49.760;9.664;2023-03-05T13:04:48;10.55;;;5.70;;
2538;SDS011;1280;49.760;9.664;2023-03-05T13:07:18;11.87;;;6.10;;
2538;SDS011;1280;49.760;9.664;2023-03-05T13:09:52;11.30;;;5.07;;
2538;SDS011;1280;49.760;9.664;2023-03-05T13:12:21;14.68;;;6.25;;
2538;SDS011;1280;49.760;9.664;2023-03-05T13:14:58;12.10;;;6.10;;
2538;SDS011;1280;49.760;9.664;2023-03-05T13:17:35;10.30;;;5.45;;
2538;SDS011;1280;49.760;9.664;2023-03-05T13:23:02;12.07;;;5.85;;
2538;SDS011;1280;49.760;9.664;2023-03-05T13:25:55;13.50;;;6.10;;
2538;SDS011;1280;49.760;9.664;2023-03-05T13:28:25;16.38;;;6.82;;
2538;SDS011;1280;49.760;9.664;2023-03-05T13:30:55;13.75;;;6.10;;
2538;SDS011;1280;49.760;9.664;2023-03-05T13:33:28;13.25;;;6.18;;
2538;SDS011;1280;49.760;9.664;2023-03-05T13:35:59;13.85;;;6.05;;
2538;SDS011;1280;49.760;9.664;2023-03-05T13:38:30;12.80;;;6.80;;
2538;SDS011;1280;49.760;9.664;2023-03-05T13:41:18;15.43;;;6.60;;
2538;SDS011;1280;49.760;9.664;2023-03-05T13:43:49;12.65;;;5.90;;
2538;SDS011;1280;49.760;9.664;2023-03-05T13:46:22;12.70;;;6.32;;
2538;SDS011;1280;49.760;9.664;2023-03-05T13:48:53;10.52;;;5.25;;
2538;SDS011;1280;49.760;9.664;2023-03-05T13:51:21;12.30;;;5.80;;
2538;SDS011;1280;49.760;9.664;2023-03-05T13:53:49;13.30;;;5.93;;
2538;SDS011;1280;49.760;9.664;2023-03-05T13:56:18;12.80;;;5.90;;
2538;SDS011;1280;49.760;9.664;2023-03-05T13:58:47;12.80;;;5.50;;
2538;SDS011;1280;49.760;9.664;2023-03-05T14:01:26;12.77;;;5.78;;
2538;SDS011;1280;49.760;9.664;2023-03-05T14:03:58;13.70;;;6.43;;
2538;SDS011;1280;49.760;9.664;2023-03-05T14:06:39;11.30;;;5.07;;
2538;SDS011;1280;49.760;9.664;2023-03-05T14:09:18;10.77;;;5.70;;
2538;SDS011;1280;49.760;9.664;2023-03-05T14:11:51;16.60;;;5.78;;
2538;SDS011;1280;49.760;9.664;2023-03-05T14:14:28;12.35;;;5.97;;
2538;SDS011;1280;49.760;9.664;2023-03-05T14:19:52;12.68;;;6.07;;
2538;SDS011;1280;49.760;9.664;2023-03-05T14:22:33;15.60;;;6.32;;
2538;SDS011;1280;49.760;9.664;2023-03-05T14:25:02;10.45;;;5.47;;
2538;SDS011;1280;49.760;9.664;2023-03-05T14:27:32;11.35;;;5.50;;
2538;SDS011;1280;49.760;9.664;2023-03-05T14:30:02;10.65;;;5.22;;
2538;SDS011;1280;49.760;9.664;2023-03-05T14:32:33;10.63;;;5.40;;
2538;SDS011;1280;49.760;9.664;2023-03-05T14:35:04;10.23;;;5.30;;
2538;SDS011;1280;49.760;9.664;2023-03-05T14:37:34;14.25;;;5.82;;
2538;SDS011;1280;49.760;9.664;2023-03-05T14:40:04;13.18;;;5.72;;
2538;SDS011;1280;49.760;9.664;2023-03-05T14:42:34;11.75;;;5.60;;
2538;SDS011;1280;49.760;9.664;2023-03-05T14:45:09;18.23;;;5.20;;
2538;SDS011;1280;49.760;9.664;2023-03-05T14:47:39;10.60;;;5.25;;
2538;SDS011;1280;49.760;9.664;2023-03-05T14:50:10;10.70;;;5.30;;
2538;SDS011;1280;49.760;9.664;2023-03-05T14:52:42;9.60;;;4.70;;
2538;SDS011;1280;49.760;9.664;2023-03-05T14:55:15;9.50;;;4.38;;
2538;SDS011;1280;49.760;9.664;2023-03-05T14:57:44;9.73;;;4.80;;
2538;SDS011;1280;49.760;9.664;2023-03-05T15:00:17;11.13;;;4.45;;
2538;SDS011;1280;49.760;9.664;2023-03-05T15:02:47;8.95;;;4.82;;
2538;SDS011;1280;49.760;9.664;2023-03-05T15:05:17;10.88;;;5.00;;
2538;SDS011;1280;49.760;9.664;2023-03-05T15:07:46;13.00;;;5.20;;
2538;SDS011;1280;49.760;9.664;2023-03-05T15:10:15;10.43;;;5.28;;
2538;SDS011;1280;49.760;9.664;2023-03-05T15:12:44;11.30;;;4.55;;
2538;SDS011;1280;49.760;9.664;2023-03-05T15:15:19;9.02;;;4.53;;
2538;SDS011;1280;49.760;9.664;2023-03-05T15:17:49;10.13;;;3.75;;
2538;SDS011;1280;49.760;9.664;2023-03-05T15:20:25;9.77;;;4.53;;
2538;SDS011;1280;49.760;9.664;2023-03-05T15:22:54;10.32;;;5.07;;
2538;SDS011;1280;49.760;9.664;2023-03-05T15:25:22;9.82;;;5.20;;
2538;SDS011;1280;49.760;9.664;2023-03-05T15:27:51;9.88;;;5.05;;
2538;SDS011;1280;49.760;9.664;2023-03-05T15:30:21;8.50;;;4.35;;
2538;SDS011;1280;49.760;9.664;2023-03-05T15:32:51;10.48;;;4.85;;
2538;SDS011;1280;49.760;9.664;2023-03-05T15:35:21;11.10;;;5.28;;
2538;SDS011;1280;49.760;9.664;2023-03-05T15:37:50;10.85;;;4.70;;
2538;SDS011;1280;49.760;9.664;2023-03-05T15:40:19;11.15;;;4.47;;
2538;SDS011;1280;49.760;9.664;2023-03-05T15:42:48;8.93;;;4.53;;
2538;SDS011;1280;49.760;9.664;2023-03-05T15:45:16;8.30;;;4.25;;
2538;SDS011;1280;49.760;9.664;2023-03-05T15:47:46;8.65;;;3.80;;
2538;SDS011;1280;49.760;9.664;2023-03-05T15:50:15;8.45;;;3.80;;
2538;SDS011;1280;49.760;9.664;2023-03-05T15:52:44;8.63;;;3.97;;
2538;SDS011;1280;49.760;9.664;2023-03-05T15:55:13;11.27;;;4.60;;